sensor_id;sensor_type;location;lat;lon;timestamp;P1;durP1;ratioP1;P2;durP2;ratioP2
17259;SDS011;8746;49.230;9.220;2023-09-12T15:05:45;5.05;;;4.68;;
17259;SDS011;8746;49.230;9.220;2023-09-12T15:08:10;5.63;;;4.68;;
17259;SDS011;8746;49.230;9.220;2023-09-12T15:10:36;5.45;;;4.90;;
17259;SDS011;8746;49.230;9.220;2023-09-12T15:13:01;6.32;;;4.90;;
17259;SDS011;8746;49.230;9.220;2023-09-12T15:15:26;5.25;;;4.85;;
17259;SDS011;8746;49.230;9.220;2023-09-12T15:17:52;5.28;;;4.88;;
17259;SDS011;8746;49.230;9.220;2023-09-12T15:20:17;5.80;;;5.07;;
17259;SDS011;8746;49.230;9.220;2023-09-12T15:22:43;5.22;;;4.72;;
17259;SDS011;8746;49.230;9.220;2023-09-12T15:25:08;6.25;;;4.32;;
17259;SDS011;8746;49.230;9.220;2023-09-12T15:27:34;9.20;;;4.90;;
17259;SDS011;8746;49.230;9.220;2023-09-12T15:30:00;4.75;;;4.40;;
17259;SDS011;8746;49.230;9.220;2023-09-12T15:32:26;7.85;;;5.30;;
17259;SDS011;8746;49.230;9.220;2023-09-12T15:34:51;5.97;;;4.90;;
17259;SDS011;8746;49.230;9.220;2023-09-12T15:37:16;5.35;;;3.95;;
17259;SDS011;8746;49.230;9.220;2023-09-12T15:39:42;5.97;;;4.60;;
17259;SDS011;8746;49.230;9.220;2023-09-12T15:42:07;6.38;;;4.97;;
17259;SDS011;8746;49.230;9.220;2023-09-12T15:44:33;5.65;;;4.38;;
17259;SDS011;8746;49.230;9.220;2023-09-12T15:46:58;8.32;;;4.85;;
17259;SDS011;8746;49.230;9.220;2023-09-12T15:49:24;5.82;;;4.53;;
17259;SDS011;8746;49.230;9.220;2023-09-12T15:51:50;7.40;;;4.70;;
17259;SDS011;8746;49.230;9.220;2023-09-12T15:54:16;5.85;;;4.38;;
17259;SDS011;8746;49.230;9.220;2023-09-12T15:56:41;5.10;;;4.45;;
17259;SDS011;8746;49.230;9.220;2023-09-12T15:59:07;5.22;;;4.60;;
17259;SDS011;8746;49.230;9.220;2023-09-12T16:01:33;4.80;;;4.40;;
17259;SDS011;8746;49.230;9.220;2023-09-12T16:03:58;4.95;;;4.55;;
17259;SDS011;8746;49.230;9.220;2023-09-12T16:06:23;6.07;;;4.78;;
17259;SDS011;8746;49.230;9.220;2023-09-12T16:08:49;6.03;;;4.40;;
17259;SDS011;8746;49.230;9.220;2023-09-12T16:11:14;5.68;;;5.03;;
17259;SDS011;8746;49.230;9.220;2023-09-12T16:13:40;5.75;;;5.00;;
17259;SDS011;8746;49.230;9.220;2023-09-12T16:16:06;5.80;;;4.60;;
17259;SDS011;8746;49.230;9.220;2023-09-12T16:18:31;6.40;;;4.80;;
17259;SDS011;8746;49.230;9.220;2023-09-12T16:20:57;6.50;;;4.80;;
17259;SDS011;8746;49.230;9.220;2023-09-12T16:23:23;5.20;;;4.75;;
17259;SDS011;8746;49.230;9.220;2023-09-12T16:25:49;7.20;;;4.90;;
17259;SDS011;8746;49.230;9.220;2023-09-12T16:28:17;5.47;;;4.78;;
17259;SDS011;8746;49.230;9.220;2023-09-12T16:30:44;7.70;;;4.78;;
17259;SDS011;8746;49.230;9.220;2023-09-12T16:33:10;9.13;;;5.68;;
17259;SDS011;8746;49.230;9.220;2023-09-12T16:35:35;6.72;;;5.30;;
17259;SDS011;8746;49.230;9.220;2023-09-12T16:38:01;9.75;;;5.47;;
17259;SDS011;8746;49.230;9.220;2023-09-12T16:40:26;9.82;;;4.80;;
17259;SDS011;8746;49.230;9.220;2023-09-12T16:42:52;7.32;;;5.55;;
17259;SDS011;8746;49.230;9.220;2023-09-12T16:45:17;9.02;;;5.38;;
17259;SDS011;8746;49.230;9.220;2023-09-12T16:47:42;8.20;;;5.50;;
17259;SDS011;8746;49.230;9.220;2023-09-12T16:50:07;5.88;;;5.38;;
17259;SDS011;8746;49.230;9.220;2023-09-12T16:52:34;7.50;;;5.22;;
17259;SDS011;8746;49.230;9.220;2023-09-12T16:54:59;8.38;;;6.30;;
17259;SDS011;8746;49.230;9.220;2023-09-12T16:57:25;6.90;;;5.97;;
17259;SDS011;8746;49.230;9.220;2023-09-12T16:59:50;6.55;;;5.13;;
17259;SDS011;8746;49.230;9.220;2023-09-12T17:02:15;7.10;;;5.60;;
17259;SDS011;8746;49.230;9.220;2023-09-12T17:04:41;7.88;;;5.93;;
17259;SDS011;8746;49.230;9.220;2023-09-12T17:07:08;6.30;;;5.70;;
17259;SDS011;8746;49.230;9.220;2023-09-12T17:09:37;7.50;;;5.45;;
17259;SDS011;8746;49.230;9.220;2023-09-12T17:12:04;6.32;;;5.70;;
17259;SDS011;8746;49.230;9.220;2023-09-12T17:14:29;8.52;;;7.07;;
17259;SDS011;8746;49.230;9.220;2023-09-12T17:16:55;8.73;;;7.93;;
17259;SDS011;8746;49.230;9.220;2023-09-12T17:19:21;6.47;;;5.85;;
17259;SDS011;8746;49.230;9.220;2023-09-12T17:21:47;9.80;;;6.78;;
17259;SDS011;8746;49.230;9.220;2023-09-12T17:24:12;7.47;;;6.22;;
17259;SDS011;8746;49.230;9.220;2023-09-12T17:26:37;6.97;;;6.38;;
17259;SDS011;8746;49.230;9.220;2023-09-12T17:29:03;8.18;;;7.38;;
17259;SDS011;8746;49.230;9.220;2023-09-12T17:31:28;11.90;;;10.77;;
17259;SDS011;8746;49.230;9.220;2023-09-12T17:33:53;6.90;;;6.20;;
17259;SDS011;8746;49.230;9.220;2023-09-12T17:36:19;6.60;;;6.10;;
17259;SDS011;8746;49.230;9.220;2023-09-12T17:38:44;7.10;;;5.50;;
17259;SDS011;8746;49.230;9.220;2023-09-12T17:41:09;10.38;;;5.88;;
17259;SDS011;8746;49.230;9.220;2023-09-12T17:43:35;8.15;;;5.75;;
17259;SDS011;8746;49.230;9.220;2023-09-12T17:46:01;9.95;;;5.93;;
17259;SDS011;8746;49.230;9.220;2023-09-12T17:48:27;8.95;;;6.22;;
17259;SDS011;8746;49.230;9.220;2023-09-12T17:50:52;7.95;;;6.10;;
17259;SDS011;8746;49.230;9.220;2023-09-12T17:53:18;7.50;;;5.82;;
17259;SDS011;8746;49.230;9.220;2023-09-12T17:55:44;7.22;;;6.50;;
17259;SDS011;8746;49.230;9.220;2023-09-12T17:58:10;9.55;;;6.13;;
17259;SDS011;8746;49.230;9.220;2023-09-12T18:00:35;9.25;;;6.57;;
17259;SDS011;8746;49.230;9.220;2023-09-12T18:03:01;9.75;;;6.20;;
17259;SDS011;8746;49.230;9.220;2023-09-12T18:05:27;8.13;;;6.40;;
17259;SDS011;8746;49.230;9.220;2023-09-12T18:07:52;6.35;;;5.85;;
17259;SDS011;8746;49.230;9.220;2023-09-12T18:10:20;7.97;;;5.47;;
17259;SDS011;8746;49.230;9.220;2023-09-12T18:12:46;8.13;;;5.72;;
17259;SDS011;8746;49.230;9.220;2023-09-12T18:15:12;9.90;;;6.13;;
17259;SDS011;8746;49.230;9.220;2023-09-12T18:17:38;10.98;;;6.47;;
17259;SDS011;8746;49.230;9.220;2023-09-12T18:20:03;6.95;;;5.68;;
17259;SDS011;8746;49.230;9.220;2023-09-12T18:22:30;7.82;;;6.60;;
17259;SDS011;8746;49.230;9.220;2023-09-12T18:24:55;8.15;;;6.88;;
17259;SDS011;8746;49.230;9.220;2023-09-12T18:27:22;7.93;;;6.20;;
17259;SDS011;8746;49.230;9.220;2023-09-12T18:29:48;7.20;;;6.00;;
17259;SDS011;8746;49.230;9.220;2023-09-12T18:32:13;6.80;;;6.10;;
17259;SDS011;8746;49.230;9.220;2023-09-12T18:34:38;6.97;;;5.78;;
17259;SDS011;8746;49.230;9.220;2023-09-12T18:37:04;10.25;;;6.10;;
17259;SDS011;8746;49.230;9.220;2023-09-12T18:39:31;6.50;;;5.80;;
17259;SDS011;8746;49.230;9.220;2023-09-12T18:41:56;7.35;;;6.22;;
17259;SDS011;8746;49.230;9.220;2023-09-12T18:44:22;8.38;;;7.20;;
17259;SDS011;8746;49.230;9.220;2023-09-12T18:46:48;8.20;;;7.40;;
17259;SDS011;8746;49.230;9.220;2023-09-12T18:49:14;8.82;;;7.22;;
17259;SDS011;8746;49.230;9.220;2023-09-12T18:51:39;8.65;;;7.75;;
17259;SDS011;8746;49.230;9.220;2023-09-12T18:54:05;9.05;;;7.45;;
17259;SDS011;8746;49.230;9.220;2023-09-12T18:56:30;8.57;;;7.53;;
17259;SDS011;8746;49.230;9.220;2023-09-12T18:58:55;7.53;;;6.72;;
17259;SDS011;8746;49.230;9.220;2023-09-12T19:01:21;7.20;;;6.50;;
17259;SDS011;8746;49.230;9.220;2023-09-12T19:03:46;9.30;;;6.82;;
17259;SDS011;8746;49.230;9.220;2023-09-12T19:06:11;8.10;;;6.45;;
17259;SDS011;8746;49.230;9.220;2023-09-12T19:08:37;7.70;;;6.78;;
17259;SDS011;8746;49.230;9.220;2023-09-12T19:11:05;11.20;;;7.03;;
17259;SDS011;8746;49.230;9.220;2023-09-12T19:13:33;7.32;;;6.68;;
17259;SDS011;8746;49.230;9.220;2023-09-12T19:15:58;8.95;;;6.47;;
17259;SDS011;8746;49.230;9.220;2023-09-12T19:18:24;10.30;;;6.70;;
17259;SDS011;8746;49.230;9.220;2023-09-12T19:20:49;9.10;;;6.85;;
17259;SDS011;8746;49.230;9.220;2023-09-12T19:23:14;7.50;;;6.20;;
17259;SDS011;8746;49.230;9.220;2023-09-12T19:25:40;8.73;;;6.38;;
17259;SDS011;8746;49.230;9.220;2023-09-12T19:28:06;6.90;;;6.22;;
17259;SDS011;8746;49.230;9.220;2023-09-12T19:30:34;7.93;;;5.88;;
17259;SDS011;8746;49.230;9.220;2023-09-12T19:33:02;7.88;;;5.95;;
17259;SDS011;8746;49.230;9.220;2023-09-12T19:35:31;7.85;;;5.88;;
17259;SDS011;8746;49.230;9.220;2023-09-12T19:37:56;9.73;;;5.60;;
17259;SDS011;8746;49.230;9.220;2023-09-12T19:40:26;7.93;;;6.13;;
17259;SDS011;8746;49.230;9.220;2023-09-12T19:42:52;7.57;;;5.65;;
17259;SDS011;8746;49.230;9.220;2023-09-12T19:45:17;9.73;;;6.07;;
17259;SDS011;8746;49.230;9.220;2023-09-12T19:47:43;7.88;;;5.25;;
17259;SDS011;8746;49.230;9.220;2023-09-12T19:50:08;7.00;;;5.53;;
17259;SDS011;8746;49.230;9.220;2023-09-12T19:52:34;7.10;;;5.70;;
17259;SDS011;8746;49.230;9.220;2023-09-12T19:54:59;6.47;;;4.97;;
17259;SDS011;8746;49.230;9.220;2023-09-12T19:57:24;7.18;;;5.32;;
17259;SDS011;8746;49.230;9.220;2023-09-12T19:59:51;6.57;;;5.45;;
17259;SDS011;8746;49.230;9.220;2023-09-12T20:02:16;9.80;;;5.80;;
17259;SDS011;8746;49.230;9.220;2023-09-12T20:04:42;10.13;;;5.10;;
17259;SDS011;8746;49.230;9.220;2023-09-12T20:07:07;8.20;;;4.80;;
17259;SDS011;8746;49.230;9.220;2023-09-12T20:09:32;8.27;;;6.20;;
17259;SDS011;8746;49.230;9.220;2023-09-12T20:11:58;5.43;;;4.93;;
17259;SDS011;8746;49.230;9.220;2023-09-12T20:14:24;6.05;;;4.97;;
17259;SDS011;8746;49.230;9.220;2023-09-12T20:16:49;6.10;;;5.25;;
17259;SDS011;8746;49.230;9.220;2023-09-12T20:19:15;8.57;;;5.28;;
17259;SDS011;8746;49.230;9.220;2023-09-12T20:21:40;7.30;;;5.50;;
17259;SDS011;8746;49.230;9.220;2023-09-12T20:24:06;6.68;;;5.20;;
17259;SDS011;8746;49.230;9.220;2023-09-12T20:26:32;6.40;;;4.80;;
17259;SDS011;8746;49.230;9.220;2023-09-12T20:28:58;8.48;;;5.00;;
17259;SDS011;8746;49.230;9.220;2023-09-12T20:31:23;5.65;;;5.13;;
17259;SDS011;8746;49.230;9.220;2023-09-12T20:33:48;7.57;;;5.47;;
17259;SDS011;8746;49.230;9.220;2023-09-12T20:36:14;8.82;;;5.10;;
17259;SDS011;8746;49.230;9.220;2023-09-12T20:38:46;5.40;;;4.93;;
17259;SDS011;8746;49.230;9.220;2023-09-12T20:41:13;9.45;;;5.22;;
17259;SDS011;8746;49.230;9.220;2023-09-12T20:43:39;7.18;;;5.40;;
17259;SDS011;8746;49.230;9.220;2023-09-12T20:46:04;8.25;;;5.60;;
17259;SDS011;8746;49.230;9.220;2023-09-12T20:48:33;6.65;;;5.40;;
17259;SDS011;8746;49.230;9.220;2023-09-12T20:51:07;7.50;;;5.53;;
17259;SDS011;8746;49.230;9.220;2023-09-12T20:53:36;7.00;;;5.00;;
17259;SDS011;8746;49.230;9.220;2023-09-12T20:56:02;5.97;;;5.43;;
17259;SDS011;8746;49.230;9.220;2023-09-12T20:58:28;5.95;;;4.97;;
17259;SDS011;8746;49.230;9.220;2023-09-12T21:00:54;5.85;;;4.75;;
17259;SDS011;8746;49.230;9.220;2023-09-12T21:03:20;6.80;;;5.55;;
17259;SDS011;8746;49.230;9.220;2023-09-12T21:05:46;6.97;;;5.43;;
17259;SDS011;8746;49.230;9.220;2023-09-12T21:08:11;7.75;;;5.15;;
17259;SDS011;8746;49.230;9.220;2023-09-12T21:10:36;5.78;;;5.20;;
17259;SDS011;8746;49.230;9.220;2023-09-12T21:13:02;6.90;;;5.38;;
17259;SDS011;8746;49.230;9.220;2023-09-12T21:15:27;5.78;;;5.22;;
17259;SDS011;8746;49.230;9.220;2023-09-12T21:17:53;6.88;;;5.63;;
17259;SDS011;8746;49.230;9.220;2023-09-12T21:20:18;7.40;;;5.22;;
17259;SDS011;8746;49.230;9.220;2023-09-12T21:22:43;6.88;;;5.22;;
17259;SDS011;8746;49.230;9.220;2023-09-12T21:25:09;11.20;;;6.05;;
17259;SDS011;8746;49.230;9.220;2023-09-12T21:27:34;5.20;;;4.70;;
17259;SDS011;8746;49.230;9.220;2023-09-12T21:30:01;8.00;;;4.80;;
17259;SDS011;8746;49.230;9.220;2023-09-12T21:32:29;6.03;;;5.30;;
17259;SDS011;8746;49.230;9.220;2023-09-12T21:35:08;5.32;;;4.82;;
17259;SDS011;8746;49.230;9.220;2023-09-12T21:37:39;5.32;;;4.82;;
17259;SDS011;8746;49.230;9.220;2023-09-12T21:40:05;6.53;;;5.10;;
17259;SDS011;8746;49.230;9.220;2023-09-12T21:42:32;5.78;;;5.07;;
17259;SDS011;8746;49.230;9.220;2023-09-12T21:44:58;5.63;;;5.13;;
17259;SDS011;8746;49.230;9.220;2023-09-12T21:47:23;5.40;;;4.90;;
17259;SDS011;8746;49.230;9.220;2023-09-12T21:49:48;5.30;;;4.78;;
17259;SDS011;8746;49.230;9.220;2023-09-12T21:52:14;5.57;;;5.05;;
17259;SDS011;8746;49.230;9.220;2023-09-12T21:54:39;5.65;;;4.72;;
17259;SDS011;8746;49.230;9.220;2023-09-12T21:57:05;6.53;;;5.30;;
17259;SDS011;8746;49.230;9.220;2023-09-12T21:59:30;5.32;;;4.78;;
17259;SDS011;8746;49.230;9.220;2023-09-12T22:01:55;5.45;;;4.95;;
17259;SDS011;8746;49.230;9.220;2023-09-12T22:04:21;7.10;;;5.10;;
17259;SDS011;8746;49.230;9.220;2023-09-12T22:06:46;5.65;;;4.60;;
17259;SDS011;8746;49.230;9.220;2023-09-12T22:09:12;9.38;;;5.32;;
17259;SDS011;8746;49.230;9.220;2023-09-12T22:11:37;5.68;;;5.05;;
17259;SDS011;8746;49.230;9.220;2023-09-12T22:14:02;6.68;;;4.78;;
17259;SDS011;8746;49.230;9.220;2023-09-12T22:16:28;5.88;;;5.25;;
17259;SDS011;8746;49.230;9.220;2023-09-12T22:18:53;5.78;;;4.70;;
17259;SDS011;8746;49.230;9.220;2023-09-12T22:21:20;5.65;;;4.80;;
17259;SDS011;8746;49.230;9.220;2023-09-12T22:23:46;7.63;;;5.25;;
17259;SDS011;8746;49.230;9.220;2023-09-12T22:26:14;6.10;;;5.07;;
17259;SDS011;8746;49.230;9.220;2023-09-12T22:28:40;5.68;;;5.07;;
17259;SDS011;8746;49.230;9.220;2023-09-12T22:31:12;5.78;;;5.28;;
17259;SDS011;8746;49.230;9.220;2023-09-12T22:33:39;5.80;;;4.90;;
17259;SDS011;8746;49.230;9.220;2023-09-12T22:36:05;6.63;;;5.28;;
17259;SDS011;8746;49.230;9.220;2023-09-12T22:38:32;7.05;;;5.40;;
17259;SDS011;8746;49.230;9.220;2023-09-12T22:40:58;6.13;;;5.38;;
17259;SDS011;8746;49.230;9.220;2023-09-12T22:43:23;6.45;;;5.82;;
17259;SDS011;8746;49.230;9.220;2023-09-12T22:45:48;7.82;;;5.18;;
17259;SDS011;8746;49.230;9.220;2023-09-12T22:48:14;7.03;;;5.43;;
17259;SDS011;8746;49.230;9.220;2023-09-12T22:50:41;6.40;;;5.28;;
17259;SDS011;8746;49.230;9.220;2023-09-12T22:53:11;6.28;;;5.60;;
17259;SDS011;8746;49.230;9.220;2023-09-12T22:55:37;5.82;;;5.32;;
17259;SDS011;8746;49.230;9.220;2023-09-12T22:58:06;7.20;;;5.20;;
17259;SDS011;8746;49.230;9.220;2023-09-12T23:00:31;6.05;;;5.55;;
17259;SDS011;8746;49.230;9.220;2023-09-12T23:03:00;5.78;;;5.28;;
17259;SDS011;8746;49.230;9.220;2023-09-12T23:05:25;5.47;;;5.07;;
17259;SDS011;8746;49.230;9.220;2023-09-12T23:07:50;5.50;;;5.10;;
17259;SDS011;8746;49.230;9.220;2023-09-12T23:10:15;8.50;;;5.28;;
17259;SDS011;8746;49.230;9.220;2023-09-12T23:12:41;6.10;;;5.53;;
17259;SDS011;8746;49.230;9.220;2023-09-12T23:15:06;6.00;;;5.20;;
17259;SDS011;8746;49.230;9.220;2023-09-12T23:17:32;6.50;;;5.00;;
17259;SDS011;8746;49.230;9.220;2023-09-12T23:19:58;7.97;;;4.97;;
17259;SDS011;8746;49.230;9.220;2023-09-12T23:22:24;6.68;;;4.90;;
17259;SDS011;8746;49.230;9.220;2023-09-12T23:24:49;5.63;;;4.68;;
17259;SDS011;8746;49.230;9.220;2023-09-12T23:27:15;5.20;;;4.70;;
17259;SDS011;8746;49.230;9.220;2023-09-12T23:29:40;5.88;;;4.40;;
17259;SDS011;8746;49.230;9.220;2023-09-12T23:32:05;4.53;;;4.18;;
17259;SDS011;8746;49.230;9.220;2023-09-12T23:34:31;4.95;;;4.45;;
17259;SDS011;8746;49.230;9.220;2023-09-12T23:36:56;4.82;;;4.43;;
17259;SDS011;8746;49.230;9.220;2023-09-12T23:39:21;4.97;;;4.47;;
17259;SDS011;8746;49.230;9.220;2023-09-12T23:41:47;7.07;;;4.55;;
17259;SDS011;8746;49.230;9.220;2023-09-12T23:44:14;5.38;;;4.68;;
17259;SDS011;8746;49.230;9.220;2023-09-12T23:46:40;7.22;;;4.30;;
17259;SDS011;8746;49.230;9.220;2023-09-12T23:49:05;6.68;;;4.45;;
17259;SDS011;8746;49.230;9.220;2023-09-12T23:51:30;5.90;;;4.82;;
17259;SDS011;8746;49.230;9.220;2023-09-12T23:53:56;5.55;;;4.30;;
17259;SDS011;8746;49.230;9.220;2023-09-12T23:56:21;4.32;;;4.00;;
17259;SDS011;8746;49.230;9.220;2023-09-12T23:58:46;6.28;;;3.90;;
